createdAt,value
2018-08-18T00:01:13.761Z,99000.45
2018-08-18T00:03:41.864Z,98995.61
2018-08-18T00:21:39.436Z,98978.84
2018-08-18T00:24:09.584Z,98973.66
2018-08-18T00:26:39.008Z,98977.14
2018-08-18T00:29:08.870Z,98971.48
2018-08-18T00:31:39.243Z,98969.80
2018-08-18T00:34:07.863Z,98965.31
2018-08-18T00:36:46.692Z,98967.32
2018-08-18T00:39:15.091Z,98968.34
2018-08-18T00:41:44.070Z,98969.71
2018-08-18T00:44:12.265Z,98971.05
2018-08-18T00:46:41.519Z,98977.38
2018-08-18T00:49:09.922Z,98979.37
2018-08-18T00:51:42.427Z,98989.70
2018-08-18T00:54:10.853Z,98995.52
2018-08-18T00:56:41.320Z,99005.91
2018-08-18T00:59:11.231Z,99010.94
2018-08-18T01:01:39.413Z,99015.91
2018-08-18T01:04:09.132Z,99014.88
2018-08-18T01:06:41.233Z,99013.91
2018-08-18T01:09:10.888Z,99017.74
2018-08-18T01:11:39.291Z,99036.95
2018-08-18T01:14:16.586Z,99035.26
2018-08-18T01:16:50.469Z,99041.24
2018-08-18T01:19:20.621Z,99047.92
2018-08-18T01:21:54.949Z,99054.28
2018-08-18T01:24:23.196Z,99057.47
2018-08-18T01:26:51.469Z,99059.14
2018-08-18T01:29:20.064Z,99060.65
2018-08-18T01:31:48.327Z,99050.30
2018-08-18T01:34:16.474Z,99054.66
2018-08-18T01:36:44.752Z,99060.23
2018-08-18T01:39:14.060Z,99058.73
2018-08-18T01:41:42.253Z,99066.05
2018-08-18T01:44:15.219Z,99066.19
2018-08-18T01:46:44.457Z,99067.70
2018-08-18T01:49:37.205Z,99063.70
2018-08-18T01:52:12.332Z,99056.42
2018-08-18T01:54:40.604Z,99058.42
2018-08-18T01:57:11.566Z,99061.58
2018-08-18T01:59:41.855Z,99062.91
2018-08-18T02:02:13.082Z,99060.42
2018-08-18T02:04:41.701Z,99060.77
2018-08-18T02:07:17.270Z,99058.10
2018-08-18T02:09:45.617Z,99065.92
2018-08-18T02:12:14.150Z,99066.06
2018-08-18T02:14:42.531Z,99064.45
2018-08-18T02:17:28.340Z,99060.23
2018-08-18T02:20:00.771Z,99069.42
2018-08-18T02:31:37.147Z,99052.42
2018-08-18T02:34:06.080Z,99064.42
2018-08-18T02:36:35.231Z,99054.94
2018-08-18T02:39:04.097Z,99059.09
2018-08-18T02:41:33.322Z,99062.89
2018-08-18T02:44:01.908Z,99057.71
2018-08-18T02:46:33.409Z,99059.22
2018-08-18T02:49:02.614Z,99064.37
2018-08-18T02:51:31.448Z,99063.55
2018-08-18T02:54:00.622Z,99056.89
2018-08-18T02:56:34.179Z,99051.89
2018-08-18T02:59:04.704Z,99060.05
2018-08-18T03:01:43.053Z,99054.39
2018-08-18T03:04:12.936Z,99061.36
2018-08-18T03:06:41.723Z,99057.98
2018-08-18T03:09:11.111Z,99061.68
2018-08-18T03:11:43.408Z,99060.48
2018-08-18T03:14:11.706Z,99069.02
2018-08-18T03:16:41.826Z,99060.31
2018-08-18T03:19:13.485Z,99070.30
2018-08-18T03:21:42.875Z,99066.97
2018-08-18T03:24:17.395Z,99062.25
2018-08-18T03:26:49.154Z,99064.88
2018-08-18T03:29:18.203Z,99070.88
2018-08-18T03:31:46.718Z,99078.55
2018-08-18T03:37:36.641Z,99083.01
2018-08-18T03:40:05.955Z,99083.53
2018-08-18T03:42:39.700Z,99077.89
2018-08-18T03:45:08.964Z,99087.34
2018-08-18T03:47:38.142Z,99091.84
2018-08-18T03:50:06.458Z,99095.84
2018-08-18T03:52:34.637Z,99091.75
2018-08-18T03:57:55.504Z,99090.20
2018-08-18T04:03:09.241Z,99100.80
2018-08-18T04:33:03.975Z,99123.89
2018-08-18T04:35:33.042Z,99124.58
2018-08-18T04:38:02.374Z,99126.36
2018-08-18T04:40:30.950Z,99128.31
2018-08-18T04:43:00.361Z,99136.51
2018-08-18T04:45:29.278Z,99142.86
2018-08-18T04:53:50.674Z,99149.23
2018-08-18T04:56:19.766Z,99147.09
2018-08-18T04:58:48.037Z,99141.23
2018-08-18T05:01:16.261Z,99140.56
2018-08-18T05:04:00.662Z,99139.75
2018-08-18T05:06:30.016Z,99149.16
2018-08-18T05:08:59.378Z,99144.16
2018-08-18T05:11:28.407Z,99135.89
2018-08-18T05:13:56.767Z,99150.00
2018-08-18T05:16:25.940Z,99139.70
2018-08-18T05:18:54.543Z,99147.87
2018-08-18T05:21:27.744Z,99144.03
2018-08-18T05:23:56.279Z,99141.57
2018-08-18T05:26:24.420Z,99144.61
2018-08-18T05:28:52.544Z,99143.28
2018-08-18T05:31:21.963Z,99139.47
2018-08-18T05:33:50.980Z,99140.33
2018-08-18T05:36:19.118Z,99147.65
2018-08-18T05:38:47.625Z,99143.30
2018-08-18T05:41:15.782Z,99142.80
2018-08-18T05:43:43.979Z,99147.33
2018-08-18T05:46:12.118Z,99145.64
2018-08-18T05:48:40.242Z,99154.95
2018-08-18T05:51:08.358Z,99153.14
2018-08-18T05:53:36.722Z,99156.00
2018-08-18T05:56:06.088Z,99157.02
2018-08-18T05:58:51.303Z,99158.19
2018-08-18T06:01:26.573Z,99158.63
2018-08-18T06:04:00.461Z,99162.73
2018-08-18T06:06:28.635Z,99158.77
2018-08-18T06:08:57.781Z,99154.33
2018-08-18T06:11:25.923Z,99155.66
2018-08-18T06:13:55.023Z,99152.09
2018-08-18T06:16:23.148Z,99155.55
2018-08-18T06:18:51.707Z,99151.11
2018-08-18T06:21:20.327Z,99151.36
2018-08-18T06:23:48.684Z,99158.95
2018-08-18T06:26:17.605Z,99168.08
2018-08-18T06:28:46.223Z,99173.42
2018-08-18T06:31:15.200Z,99171.97
2018-08-18T06:33:43.416Z,99175.53
2018-08-18T06:36:11.722Z,99172.73
2018-08-18T06:41:20.069Z,99176.21
2018-08-18T06:43:48.120Z,99184.19
2018-08-18T06:46:16.278Z,99177.22
2018-08-18T06:48:44.728Z,99179.36
2018-08-18T06:51:12.873Z,99184.00
2018-08-18T06:53:44.089Z,99182.89
2018-08-18T06:56:12.337Z,99189.08
2018-08-18T06:58:40.544Z,99185.25
2018-08-18T07:01:09.216Z,99185.81
2018-08-18T07:03:41.086Z,99189.04
2018-08-18T07:06:11.531Z,99188.83
2018-08-18T07:08:44.923Z,99190.98
2018-08-18T07:11:13.071Z,99187.89
2018-08-18T07:13:42.489Z,99192.56
2018-08-18T07:16:10.661Z,99189.52
2018-08-18T07:18:38.864Z,99185.16
2018-08-18T07:21:07.209Z,99181.16
2018-08-18T07:23:35.826Z,99194.02
2018-08-18T07:26:04.048Z,99190.91
2018-08-18T07:28:32.201Z,99186.77
2018-08-18T07:31:00.348Z,99188.08
2018-08-18T07:33:28.595Z,99191.50
2018-08-18T07:35:57.696Z,99187.66
2018-08-18T07:38:26.146Z,99195.83
2018-08-18T07:40:54.984Z,99187.30
2018-08-18T07:43:33.855Z,99194.33
2018-08-18T07:46:03.607Z,99193.46
2018-08-18T07:48:32.363Z,99192.37
2018-08-18T07:51:00.522Z,99196.14
2018-08-18T07:53:28.751Z,99195.05
2018-08-18T07:55:56.850Z,99194.92
2018-08-18T07:58:25.508Z,99198.09
2018-08-18T08:00:56.463Z,99194.28
2018-08-18T08:03:24.621Z,99200.78
2018-08-18T08:05:52.743Z,99210.08
2018-08-18T08:08:20.936Z,99207.91
2018-08-18T08:10:49.677Z,99211.92
2018-08-18T08:13:17.843Z,99206.83
2018-08-18T08:15:45.960Z,99216.11
2018-08-18T08:18:15.369Z,99211.08
2018-08-18T08:20:43.498Z,99213.45
2018-08-18T08:23:11.653Z,99212.50
2018-08-18T08:25:39.965Z,99218.28
2018-08-18T08:28:08.586Z,99214.53
2018-08-18T08:30:37.331Z,99216.23
2018-08-18T08:33:05.488Z,99214.88
2018-08-18T08:35:36.823Z,99220.48
2018-08-18T08:38:04.984Z,99224.59
2018-08-18T08:40:33.192Z,99223.20
2018-08-18T08:43:01.327Z,99221.89
2018-08-18T08:45:29.732Z,99215.58
2018-08-18T08:47:59.603Z,99225.60
2018-08-18T08:50:27.735Z,99218.59
2018-08-18T08:52:56.950Z,99225.87
2018-08-18T08:55:28.589Z,99216.27
2018-08-18T08:57:56.757Z,99225.84
2018-08-18T09:00:24.934Z,99213.63
2018-08-18T09:02:53.203Z,99209.55
2018-08-18T09:05:22.438Z,99217.38
2018-08-18T09:07:50.809Z,99215.22
2018-08-18T09:10:19.062Z,99215.52
2018-08-18T09:12:47.140Z,99216.72
2018-08-18T09:15:17.872Z,99214.83
2018-08-18T09:17:45.983Z,99214.03
2018-08-18T09:20:17.257Z,99216.30
2018-08-18T09:22:51.808Z,99216.17
2018-08-18T09:25:20.096Z,99221.16
2018-08-18T09:27:53.461Z,99212.80
2018-08-18T09:30:22.090Z,99213.05
2018-08-18T09:32:50.564Z,99214.02
2018-08-18T09:35:18.832Z,99219.19
2018-08-18T09:37:52.206Z,99216.23
2018-08-18T09:40:20.405Z,99218.65
2018-08-18T09:42:48.612Z,99213.92
2018-08-18T09:45:16.806Z,99210.52
2018-08-18T09:47:44.905Z,99207.59
2018-08-18T09:50:13.182Z,99215.02
2018-08-18T09:52:41.378Z,99209.15
2018-08-18T09:55:10.777Z,99212.47
2018-08-18T09:57:38.999Z,99210.08
2018-08-18T10:00:10.825Z,99213.09
2018-08-18T10:02:38.944Z,99208.30
2018-08-18T10:05:07.139Z,99210.79
2018-08-18T10:07:35.315Z,99209.41
2018-08-18T10:10:03.627Z,99202.40
2018-08-18T10:12:31.746Z,99200.42
2018-08-18T10:14:59.893Z,99201.55
2018-08-18T10:17:28.114Z,99198.61
2018-08-18T10:19:56.315Z,99193.52
2018-08-18T10:22:24.577Z,99198.61
2018-08-18T10:24:52.695Z,99202.20
2018-08-18T10:27:20.982Z,99192.48
2018-08-18T10:29:49.278Z,99194.88
2018-08-18T10:32:17.422Z,99195.03
2018-08-18T10:34:45.616Z,99194.45
2018-08-18T10:37:14.931Z,99196.97
2018-08-18T10:39:43.145Z,99190.42
2018-08-18T10:42:15.995Z,99189.39
2018-08-18T10:44:50.538Z,99182.23
2018-08-18T10:47:19.966Z,99187.84
2018-08-18T10:49:59.604Z,99186.37
2018-08-18T10:52:39.874Z,99189.15
2018-08-18T10:55:10.201Z,99175.19
2018-08-18T10:57:50.584Z,99184.00
2018-08-18T11:00:20.229Z,99174.12
2018-08-18T11:02:49.766Z,99180.33
2018-08-18T11:05:18.472Z,99181.27
2018-08-18T11:07:53.912Z,99166.66
2018-08-18T11:10:23.035Z,99175.47
2018-08-18T11:12:51.269Z,99175.68
2018-08-18T11:15:20.410Z,99178.81
2018-08-18T11:17:48.535Z,99173.41
2018-08-18T11:20:19.204Z,99175.48
2018-08-18T11:22:59.667Z,99176.39
2018-08-18T11:25:30.997Z,99173.84
2018-08-18T11:27:59.682Z,99173.77
2018-08-18T11:30:28.021Z,99174.86
2018-08-18T11:32:57.306Z,99168.33
2018-08-18T11:35:26.476Z,99167.06
2018-08-18T11:37:57.636Z,99164.38
2018-08-18T11:40:27.724Z,99166.34
2018-08-18T11:42:59.128Z,99168.70
2018-08-18T11:45:28.299Z,99163.47
2018-08-18T11:48:06.072Z,99166.91
2018-08-18T11:50:34.324Z,99162.41
2018-08-18T11:53:03.438Z,99159.19
2018-08-18T11:55:31.640Z,99152.50
2018-08-18T11:58:03.350Z,99156.91
2018-08-18T12:00:33.923Z,99153.39
2018-08-18T12:03:09.676Z,99157.77
2018-08-18T12:05:44.259Z,99153.33
2018-08-18T12:08:13.349Z,99154.69
2018-08-18T12:10:41.579Z,99147.11
2018-08-18T12:13:09.664Z,99142.89
2018-08-18T12:15:54.644Z,99143.17
2018-08-18T12:18:24.130Z,99138.08
2018-08-18T12:20:54.319Z,99135.55
2018-08-18T12:23:22.429Z,99143.31
2018-08-18T12:25:56.020Z,99138.48
2018-08-18T12:28:30.422Z,99140.06
2018-08-18T12:30:59.183Z,99130.16
2018-08-18T12:33:27.936Z,99136.33
2018-08-18T12:35:56.076Z,99132.03
2018-08-18T12:38:24.442Z,99121.58
2018-08-18T12:40:52.879Z,99127.25
2018-08-18T12:43:29.152Z,99123.44
2018-08-18T12:45:58.351Z,99126.15
2018-08-18T12:48:26.473Z,99118.13
2018-08-18T12:50:54.599Z,99116.37
2018-08-18T12:53:22.724Z,99117.70
2018-08-18T12:56:06.616Z,99120.94
2018-08-18T12:58:34.880Z,99119.66
2018-08-18T13:01:03.185Z,99112.02
2018-08-18T13:03:31.823Z,99119.23
2018-08-18T13:06:00.089Z,99110.43
2018-08-18T13:08:29.081Z,99103.38
2018-08-18T13:10:57.207Z,99107.95
2018-08-18T13:13:25.396Z,99100.95
2018-08-18T13:15:54.964Z,99098.82
2018-08-18T13:18:23.313Z,99095.62
2018-08-18T13:20:53.003Z,99090.89
2018-08-18T13:23:23.481Z,99093.83
2018-08-18T13:25:52.255Z,99080.89
2018-08-18T13:28:20.455Z,99085.42
2018-08-18T13:30:48.578Z,99090.77
2018-08-18T13:33:16.729Z,99084.77
2018-08-18T13:35:44.922Z,99085.18
2018-08-18T13:38:26.425Z,99078.89
2018-08-18T13:40:55.041Z,99087.25
2018-08-18T13:43:55.417Z,99083.48
2018-08-18T13:46:35.036Z,99077.14
2018-08-18T13:49:07.227Z,99081.67
2018-08-18T13:51:36.387Z,99079.05
2018-08-18T13:54:04.732Z,99075.43
2018-08-18T13:56:33.200Z,99072.59
2018-08-18T13:59:01.414Z,99069.98
2018-08-18T14:01:36.618Z,99063.83
2018-08-18T14:04:05.415Z,99071.84
2018-08-18T14:06:38.791Z,99066.53
2018-08-18T14:09:07.347Z,99064.06
2018-08-18T14:11:35.536Z,99063.95
2018-08-18T14:14:03.809Z,99053.97
2018-08-18T14:16:32.426Z,99052.25
2018-08-18T14:19:00.857Z,99049.80
2018-08-18T14:21:29.252Z,99046.02
2018-08-18T14:23:57.533Z,99048.41
2018-08-18T14:26:25.942Z,99044.88
2018-08-18T14:28:54.112Z,99041.13
2018-08-18T14:31:23.326Z,99046.56
2018-08-18T14:33:51.485Z,99051.70
2018-08-18T14:36:19.616Z,99043.78
2018-08-18T14:38:47.908Z,99047.61
2018-08-18T14:41:21.177Z,99049.36
2018-08-18T14:43:49.376Z,99055.25
2018-08-18T14:46:17.721Z,99052.84
2018-08-18T14:48:45.863Z,99049.44
2018-08-18T14:51:14.052Z,99054.77
2018-08-18T14:53:42.960Z,99053.66
2018-08-18T14:56:11.117Z,99054.38
2018-08-18T14:58:42.715Z,99057.91
2018-08-18T15:01:12.938Z,99055.92
2018-08-18T15:03:42.461Z,99047.83
2018-08-18T15:06:11.396Z,99053.84
2018-08-18T15:08:39.517Z,99051.70
2018-08-18T15:11:07.963Z,99054.45
2018-08-18T15:13:36.583Z,99052.98
2018-08-18T15:16:04.765Z,99051.11
2018-08-18T15:18:33.359Z,99052.74
2018-08-18T15:21:01.876Z,99050.01
2018-08-18T15:23:29.950Z,99047.93
2018-08-18T15:25:58.164Z,99049.09
2018-08-18T15:28:28.044Z,99042.28
2018-08-18T15:30:56.178Z,99041.47
2018-08-18T15:33:25.723Z,99048.79
2018-08-18T15:35:53.837Z,99039.42
2018-08-18T15:38:40.372Z,99050.72
2018-08-18T15:41:08.710Z,99043.84
2018-08-18T15:43:36.854Z,99050.80
2018-08-18T15:46:06.057Z,99046.66
2018-08-18T15:48:34.940Z,99045.78
2018-08-18T15:51:03.045Z,99037.55
2018-08-18T15:53:55.524Z,99037.38
2018-08-18T15:56:24.435Z,99043.12
2018-08-18T15:58:53.441Z,99038.17
2018-08-18T16:01:21.930Z,99041.67
2018-08-18T16:03:50.412Z,99039.06
2018-08-18T16:06:18.881Z,99038.00
2018-08-18T16:08:46.989Z,99039.77
2018-08-18T16:11:15.642Z,99040.99
2018-08-18T16:13:43.802Z,99031.05
2018-08-18T16:16:12.802Z,99038.22
2018-08-18T16:18:41.189Z,99037.77
2018-08-18T16:21:17.913Z,99032.95
2018-08-18T16:23:46.164Z,99033.16
2018-08-18T16:26:14.309Z,99034.48
2018-08-18T16:28:42.987Z,99032.05
2018-08-18T16:31:11.615Z,99037.05
2018-08-18T16:33:40.103Z,99029.10
2018-08-18T16:36:09.332Z,99034.05
2018-08-18T16:38:37.617Z,99026.41
2018-08-18T16:41:06.396Z,99021.28
2018-08-18T16:43:36.372Z,99022.12
2018-08-18T16:46:32.243Z,99029.16
2018-08-18T16:49:00.837Z,99032.41
2018-08-18T16:51:29.788Z,99027.23
2018-08-18T16:54:12.188Z,99026.27
2018-08-18T16:56:40.382Z,99022.02
2018-08-18T16:59:08.535Z,99024.73
2018-08-18T17:01:37.170Z,99022.41
2018-08-18T17:04:05.622Z,99026.36
2018-08-18T17:06:33.795Z,99026.45
2018-08-18T17:09:01.959Z,99032.00
2018-08-18T17:11:30.957Z,99032.23
2018-08-18T17:13:59.715Z,99033.72
2018-08-18T17:16:27.959Z,99039.11
2018-08-18T17:18:56.281Z,99033.20
2018-08-18T17:21:24.949Z,99039.27
2018-08-18T17:23:53.160Z,99040.66
2018-08-18T17:26:21.659Z,99048.27
2018-08-18T17:28:49.804Z,99038.31
2018-08-18T17:31:17.982Z,99041.05
2018-08-18T17:33:46.237Z,99046.05
2018-08-18T17:36:14.456Z,99044.41
2018-08-18T17:38:42.777Z,99046.03
2018-08-18T17:41:10.892Z,99044.77
2018-08-18T17:43:39.804Z,99050.73
2018-08-18T17:46:08.838Z,99048.53
2018-08-18T17:48:42.347Z,99057.08
2018-08-18T17:51:11.468Z,99055.23
2018-08-18T17:53:54.802Z,99054.66
2018-08-18T17:56:22.992Z,99059.33
2018-08-18T17:58:51.165Z,99060.89
2018-08-18T18:01:19.606Z,99067.41
2018-08-18T18:03:47.831Z,99069.45
2018-08-18T18:06:15.999Z,99064.79
2018-08-18T18:08:44.104Z,99071.84
2018-08-18T18:11:12.239Z,99072.68
2018-08-18T18:13:40.376Z,99079.53
2018-08-18T18:16:42.146Z,99076.71
2018-08-18T18:19:10.288Z,99085.10
2018-08-18T18:21:38.985Z,99086.67
2018-08-18T18:24:07.281Z,99093.16
2018-08-18T18:26:35.384Z,99090.08
2018-08-18T18:29:03.506Z,99090.39
2018-08-18T18:31:31.715Z,99094.59
2018-08-18T18:34:03.592Z,99094.70
2018-08-18T18:36:32.772Z,99103.72
2018-08-18T18:39:00.948Z,99104.83
2018-08-18T18:41:29.087Z,99109.67
2018-08-18T18:43:59.204Z,99109.80
2018-08-18T18:46:27.703Z,99109.09
2018-08-18T18:48:56.206Z,99111.66
2018-08-18T18:51:24.391Z,99116.36
2018-08-18T18:53:53.583Z,99117.20
2018-08-18T18:56:21.854Z,99117.66
2018-08-18T18:58:50.027Z,99117.94
2018-08-18T19:01:19.851Z,99125.41
2018-08-18T19:03:48.421Z,99119.90
2018-08-18T19:06:16.637Z,99121.40
2018-08-18T19:08:58.091Z,99135.67
2018-08-18T19:11:26.898Z,99132.85
2018-08-18T19:13:55.072Z,99140.88
2018-08-18T19:16:23.278Z,99142.03
2018-08-18T19:18:51.384Z,99143.02
2018-08-18T19:21:19.489Z,99146.54
2018-08-18T19:23:47.646Z,99157.10
2018-08-18T19:26:15.821Z,99157.39
2018-08-18T19:28:43.963Z,99155.23
2018-08-18T19:31:12.105Z,99165.84
2018-08-18T19:33:40.237Z,99164.96
2018-08-18T19:36:08.431Z,99166.61
2018-08-18T19:38:36.595Z,99167.40
2018-08-18T19:41:05.067Z,99167.31
2018-08-18T19:43:33.227Z,99164.21
2018-08-18T19:46:01.366Z,99165.16
2018-08-18T19:48:29.489Z,99166.61
2018-08-18T19:51:03.061Z,99170.83
2018-08-18T19:53:33.498Z,99177.59
2018-08-18T19:56:02.328Z,99177.14
2018-08-18T19:58:30.893Z,99181.36
2018-08-18T20:00:59.031Z,99177.73
2018-08-18T20:03:27.464Z,99177.34
2018-08-18T20:05:55.609Z,99177.48
2018-08-18T20:08:25.651Z,99173.17
2018-08-18T20:10:55.364Z,99178.57
2018-08-18T20:13:24.669Z,99177.47
2018-08-18T20:15:54.167Z,99182.45
2018-08-18T20:18:23.243Z,99180.71
2018-08-18T20:20:52.337Z,99181.91
2018-08-18T20:23:21.264Z,99185.13
2018-08-18T20:25:49.948Z,99184.38
2018-08-18T20:28:18.167Z,99185.22
2018-08-18T20:30:46.978Z,99182.98
2018-08-18T20:33:15.483Z,99191.16
2018-08-18T20:35:43.675Z,99187.72
2018-08-18T20:38:11.817Z,99189.16
2018-08-18T20:40:39.991Z,99191.50
2018-08-18T20:43:08.160Z,99191.84
2018-08-18T20:45:41.685Z,99195.47
2018-08-18T20:48:10.467Z,99189.98
2018-08-18T20:50:38.652Z,99194.01
2018-08-18T20:53:11.851Z,99196.21
2018-08-18T20:55:40.737Z,99199.48
2018-08-18T20:58:08.863Z,99203.17
2018-08-18T21:00:36.963Z,99202.66
2018-08-18T21:03:05.136Z,99202.41
2018-08-18T21:05:33.951Z,99202.39
2018-08-18T21:08:07.648Z,99208.70
2018-08-18T21:10:36.205Z,99205.33
2018-08-18T21:13:04.340Z,99206.78
2018-08-18T21:15:32.449Z,99204.88
2018-08-18T21:18:05.675Z,99202.75
2018-08-18T21:20:34.951Z,99202.50
2018-08-18T21:23:03.221Z,99207.92
2018-08-18T21:25:48.256Z,99211.25
2018-08-18T21:28:17.620Z,99210.60
2018-08-18T21:30:46.053Z,99209.60
2018-08-18T21:33:14.383Z,99206.13
2018-08-18T21:35:42.789Z,99208.06
2018-08-18T21:38:11.351Z,99214.63
2018-08-18T21:40:39.572Z,99215.58
2018-08-18T21:43:18.903Z,99217.95
2018-08-18T21:45:47.059Z,99212.48
2018-08-18T21:48:15.574Z,99217.79
2018-08-18T21:50:44.459Z,99216.36
2018-08-18T21:53:14.137Z,99215.22
2018-08-18T21:55:42.539Z,99219.05
2018-08-18T21:58:10.852Z,99219.38
2018-08-18T22:02:44.470Z,99221.66
2018-08-18T22:05:13.898Z,99218.99
2018-08-18T22:07:47.353Z,99214.28
2018-08-18T22:10:15.512Z,99218.83
2018-08-18T22:12:43.643Z,99217.24
2018-08-18T22:15:18.728Z,99219.53
2018-08-18T22:17:47.794Z,99213.56
2018-08-18T22:20:17.440Z,99216.55
2018-08-18T22:22:46.645Z,99219.58
2018-08-18T22:25:15.584Z,99217.83
2018-08-18T22:27:44.715Z,99222.78
2018-08-18T22:30:15.733Z,99218.12
2018-08-18T22:32:44.942Z,99211.92
2018-08-18T22:35:13.714Z,99210.31
2018-08-18T22:37:42.204Z,99214.30
2018-08-18T22:40:11.184Z,99208.64
2018-08-18T22:42:39.463Z,99212.86
2018-08-18T22:45:18.912Z,99208.59
2018-08-18T22:47:47.038Z,99205.11
2018-08-18T22:50:15.687Z,99207.23
2018-08-18T22:52:47.362Z,99208.11
2018-08-18T22:55:15.599Z,99211.61
2018-08-18T22:57:47.898Z,99196.61
2018-08-18T23:00:16.072Z,99194.95
2018-08-18T23:02:44.591Z,99196.58
2018-08-18T23:05:12.779Z,99195.20
2018-08-18T23:07:49.221Z,99194.53
2018-08-18T23:10:17.656Z,99201.39
2018-08-18T23:12:45.807Z,99205.45
2018-08-18T23:15:13.919Z,99203.09
2018-08-18T23:17:42.075Z,99203.70
2018-08-18T23:20:10.267Z,99203.50
2018-08-18T23:22:52.762Z,99198.87
2018-08-18T23:25:21.391Z,99201.27
2018-08-18T23:27:49.631Z,99200.95
2018-08-18T23:30:34.195Z,99198.31
2018-08-18T23:33:04.898Z,99193.41
2018-08-18T23:35:33.003Z,99202.11
2018-08-18T23:38:01.259Z,99195.61
2018-08-18T23:40:29.509Z,99197.29
2018-08-18T23:42:58.183Z,99189.86
2018-08-18T23:45:36.967Z,99188.73
2018-08-18T23:48:08.513Z,99190.11
2018-08-18T23:50:37.603Z,99192.43
2018-08-18T23:53:07.659Z,99195.68
2018-08-18T23:55:39.079Z,99198.62
2018-08-18T23:58:07.211Z,99192.45
